createdAt,value
2018-07-19T00:01:22.094Z,20.10
2018-07-19T00:03:50.534Z,20.10
2018-07-19T00:06:18.860Z,20.10
2018-07-19T00:08:47.128Z,20.10
2018-07-19T00:11:15.440Z,20.10
2018-07-19T00:13:43.740Z,20.10
2018-07-19T00:16:12.046Z,20.10
2018-07-19T00:18:40.330Z,20.10
2018-07-19T00:21:08.588Z,20.00
2018-07-19T00:23:36.836Z,20.00
2018-07-19T00:26:05.210Z,20.00
2018-07-19T00:28:33.490Z,20.00
2018-07-19T00:31:01.717Z,19.90
2018-07-19T00:33:29.947Z,20.00
2018-07-19T00:35:59.278Z,19.90
2018-07-19T00:38:27.512Z,19.90
2018-07-19T00:40:55.846Z,19.90
2018-07-19T00:43:24.115Z,19.80
2018-07-19T00:45:52.404Z,19.80
2018-07-19T00:48:20.703Z,19.80
2018-07-19T00:50:48.947Z,19.80
2018-07-19T00:53:17.223Z,19.70
2018-07-19T00:55:45.580Z,19.70
2018-07-19T00:58:13.846Z,19.70
2018-07-19T01:00:42.086Z,19.70
2018-07-19T01:03:10.307Z,19.70
2018-07-19T01:05:39.674Z,19.60
2018-07-19T01:08:07.959Z,19.60
2018-07-19T01:10:36.259Z,19.50
2018-07-19T01:13:04.743Z,19.50
2018-07-19T01:15:33.209Z,19.50
2018-07-19T01:18:01.453Z,19.50
2018-07-19T01:20:30.295Z,19.40
2018-07-19T01:22:58.580Z,19.40
2018-07-19T01:25:26.875Z,19.30
2018-07-19T01:27:55.201Z,19.30
2018-07-19T01:30:23.465Z,19.20
2018-07-19T01:32:51.758Z,19.20
2018-07-19T01:35:20.159Z,19.20
2018-07-19T01:37:48.456Z,19.10
2018-07-19T01:40:16.677Z,19.10
2018-07-19T01:42:45.659Z,19.10
2018-07-19T01:45:14.455Z,19.10
2018-07-19T01:47:42.824Z,19.00
2018-07-19T01:50:11.712Z,18.90
2018-07-19T01:52:40.038Z,18.80
2018-07-19T01:55:08.932Z,18.70
2018-07-19T01:57:37.237Z,18.70
2018-07-19T02:00:05.905Z,18.60
2018-07-19T02:02:34.179Z,18.60
2018-07-19T02:05:02.659Z,18.50
2018-07-19T02:09:58.902Z,18.40
2018-07-19T02:12:27.220Z,18.40
2018-07-19T02:14:55.604Z,18.40
2018-07-19T02:17:23.938Z,18.40
2018-07-19T02:19:52.172Z,18.40
2018-07-19T02:22:20.417Z,18.40
2018-07-19T02:24:48.842Z,18.40
2018-07-19T02:27:17.122Z,18.40
2018-07-19T02:29:45.372Z,18.40
2018-07-19T02:32:13.653Z,18.50
2018-07-19T02:34:42.713Z,18.50
2018-07-19T02:37:11.037Z,18.60
2018-07-19T02:39:39.495Z,18.60
2018-07-19T02:42:07.766Z,18.70
2018-07-19T02:44:36.184Z,18.60
2018-07-19T02:47:04.416Z,18.50
2018-07-19T02:49:32.631Z,18.60
2018-07-19T02:52:00.868Z,18.60
2018-07-19T02:54:29.172Z,18.60
2018-07-19T02:56:57.371Z,18.50
2018-07-19T02:59:25.614Z,18.50
2018-07-19T03:01:53.997Z,18.40
2018-07-19T03:04:22.432Z,18.30
2018-07-19T03:06:50.694Z,18.30
2018-07-19T03:09:18.927Z,18.30
2018-07-19T03:11:47.145Z,18.20
2018-07-19T03:14:15.504Z,18.10
2018-07-19T03:16:43.806Z,18.00
2018-07-19T03:19:12.162Z,18.00
2018-07-19T03:21:40.407Z,17.90
2018-07-19T03:26:36.918Z,17.80
2018-07-19T03:29:25.394Z,17.70
2018-07-19T03:31:53.701Z,17.50
2018-07-19T03:34:22.032Z,17.40
2018-07-19T03:36:50.426Z,17.40
2018-07-19T03:39:18.723Z,17.30
2018-07-19T03:44:15.066Z,17.30
2018-07-19T03:46:43.304Z,17.20
2018-07-19T03:49:11.484Z,17.20
2018-07-19T03:51:39.779Z,17.10
2018-07-19T03:54:08.178Z,17.10
2018-07-19T03:56:36.415Z,17.00
2018-07-19T03:59:04.626Z,17.00
2018-07-19T04:04:01.086Z,17.00
2018-07-19T04:06:29.346Z,17.10
2018-07-19T04:08:57.560Z,17.10
2018-07-19T04:11:25.800Z,17.00
2018-07-19T04:16:22.559Z,16.90
2018-07-19T04:18:50.794Z,17.00
2018-07-19T04:21:19.008Z,17.10
2018-07-19T04:24:05.539Z,17.20
2018-07-19T04:26:33.855Z,17.30
2018-07-19T04:29:02.069Z,17.40
2018-07-19T04:31:30.304Z,17.50
2018-07-19T04:33:58.587Z,17.50
2018-07-19T04:36:26.780Z,17.50
2018-07-19T04:38:55.053Z,17.50
2018-07-19T04:41:23.302Z,17.50
2018-07-19T04:43:51.671Z,17.50
2018-07-19T04:46:20.071Z,17.50
2018-07-19T04:48:48.297Z,17.50
2018-07-19T04:51:16.538Z,17.40
2018-07-19T04:53:44.778Z,17.40
2018-07-19T04:56:13.003Z,17.40
2018-07-19T04:58:41.769Z,17.40
2018-07-19T05:01:10.041Z,17.40
2018-07-19T05:03:38.271Z,17.30
2018-07-19T05:06:06.562Z,17.30
2018-07-19T05:08:34.795Z,17.40
2018-07-19T05:11:02.987Z,17.40
2018-07-19T05:13:31.213Z,17.50
2018-07-19T05:15:59.467Z,17.50
2018-07-19T05:18:27.680Z,17.60
2018-07-19T05:20:55.886Z,17.70
2018-07-19T05:23:24.051Z,17.70
2018-07-19T05:25:52.328Z,17.80
2018-07-19T05:28:20.540Z,17.80
2018-07-19T05:30:48.781Z,17.90
2018-07-19T05:33:17.067Z,17.90
2018-07-19T05:35:45.492Z,18.00
2018-07-19T05:38:13.726Z,18.10
2018-07-19T05:40:41.989Z,18.30
2018-07-19T05:43:10.190Z,18.40
2018-07-19T05:45:38.604Z,18.60
2018-07-19T05:48:06.826Z,18.70
2018-07-19T05:53:09.791Z,18.90
2018-07-19T05:55:38.256Z,18.90
2018-07-19T05:58:06.464Z,18.90
2018-07-19T06:06:03.732Z,19.00
2018-07-19T06:08:32.634Z,19.10
2018-07-19T06:11:01.036Z,19.20
2018-07-19T06:13:29.269Z,19.20
2018-07-19T06:15:57.607Z,19.20
2018-07-19T06:18:25.847Z,19.10
2018-07-19T06:20:54.105Z,19.20
2018-07-19T06:23:22.333Z,19.30
2018-07-19T06:28:18.749Z,19.50
2018-07-19T06:30:46.994Z,19.50
2018-07-19T06:33:15.174Z,19.50
2018-07-19T06:35:43.763Z,19.50
2018-07-19T06:38:11.987Z,19.60
2018-07-19T06:40:40.235Z,19.60
2018-07-19T06:43:08.523Z,19.70
2018-07-19T06:45:37.729Z,19.80
2018-07-19T06:48:05.990Z,19.80
2018-07-19T06:50:34.258Z,19.80
2018-07-19T06:53:02.516Z,19.90
2018-07-19T06:55:30.857Z,19.80
2018-07-19T06:57:59.015Z,19.80
2018-07-19T07:00:27.188Z,19.80
2018-07-19T07:02:55.364Z,19.80
2018-07-19T07:05:24.666Z,19.80
2018-07-19T07:10:21.147Z,19.70
2018-07-19T07:12:49.368Z,19.80
2018-07-19T07:15:18.661Z,19.90
2018-07-19T07:17:46.923Z,20.00
2018-07-19T07:20:15.145Z,20.10
2018-07-19T07:22:43.296Z,20.20
2018-07-19T07:25:11.577Z,20.30
2018-07-19T07:27:39.783Z,20.40
2018-07-19T07:30:08.031Z,20.50
2018-07-19T07:32:36.249Z,20.50
2018-07-19T07:35:05.410Z,20.60
2018-07-19T07:37:33.608Z,20.60
2018-07-19T07:40:01.858Z,20.70
2018-07-19T07:42:30.044Z,20.80
2018-07-19T07:44:58.334Z,20.80
2018-07-19T07:47:26.493Z,20.90
2018-07-19T07:49:55.246Z,21.00
2018-07-19T07:52:23.411Z,21.00
2018-07-19T07:54:51.691Z,21.00
2018-07-19T07:57:19.916Z,20.90
2018-07-19T07:59:48.137Z,20.90
2018-07-19T08:02:16.385Z,20.90
2018-07-19T08:04:44.759Z,21.20
2018-07-19T08:07:13.097Z,21.30
2018-07-19T08:09:41.309Z,21.30
2018-07-19T08:12:09.587Z,21.30
2018-07-19T08:14:38.865Z,21.40
2018-07-19T08:17:07.255Z,21.40
2018-07-19T08:19:35.485Z,21.30
2018-07-19T08:22:03.683Z,21.30
2018-07-19T08:24:31.943Z,21.40
2018-07-19T08:27:00.407Z,21.50
2018-07-19T08:29:28.630Z,21.70
2018-07-19T08:31:56.867Z,21.90
2018-07-19T08:34:25.140Z,21.80
2018-07-19T08:36:53.388Z,21.70
2018-07-19T08:39:21.609Z,21.70
2018-07-19T08:41:49.802Z,21.80
2018-07-19T08:44:18.145Z,21.90
2018-07-19T08:46:46.348Z,22.00
2018-07-19T08:49:14.662Z,21.90
2018-07-19T08:51:42.894Z,21.70
2018-07-19T08:56:39.268Z,21.80
2018-07-19T08:59:07.499Z,21.90
2018-07-19T09:01:35.676Z,21.90
2018-07-19T09:04:04.185Z,21.90
2018-07-19T09:06:32.381Z,21.90
2018-07-19T09:09:00.703Z,21.90
2018-07-19T09:11:28.929Z,22.00
2018-07-19T09:13:57.288Z,22.10
2018-07-19T09:16:25.680Z,22.10
2018-07-19T09:18:53.880Z,22.00
2018-07-19T09:21:22.101Z,21.90
2018-07-19T09:23:50.306Z,22.00
2018-07-19T09:26:18.481Z,21.90
2018-07-19T09:28:46.707Z,21.90
2018-07-19T09:31:14.963Z,22.10
2018-07-19T09:33:43.158Z,22.10
2018-07-19T09:36:11.392Z,22.20
2018-07-19T09:38:39.608Z,22.20
2018-07-19T09:41:07.809Z,22.30
2018-07-19T09:43:36.162Z,22.30
2018-07-19T09:46:04.452Z,22.50
2018-07-19T09:48:32.792Z,22.50
2018-07-19T09:51:00.963Z,22.50
2018-07-19T09:53:29.217Z,22.30
2018-07-19T09:55:57.653Z,22.30
2018-07-19T09:58:25.817Z,22.30
2018-07-19T10:00:59.355Z,22.30
2018-07-19T10:03:27.540Z,22.20
2018-07-19T10:05:55.759Z,22.20
2018-07-19T10:08:24.042Z,22.30
2018-07-19T10:10:52.400Z,22.40
2018-07-19T10:13:20.713Z,22.50
2018-07-19T10:15:49.053Z,22.50
2018-07-19T10:18:17.293Z,22.50
2018-07-19T10:23:14.791Z,22.40
2018-07-19T10:25:44.044Z,22.40
2018-07-19T10:28:12.313Z,22.40
2018-07-19T10:30:40.490Z,22.40
2018-07-19T10:33:08.695Z,22.40
2018-07-19T10:35:37.094Z,22.50
2018-07-19T10:38:05.333Z,22.60
2018-07-19T10:43:01.426Z,22.70
2018-07-19T10:45:29.812Z,22.80
2018-07-19T10:47:58.012Z,22.80
2018-07-19T10:50:26.205Z,22.80
2018-07-19T10:52:54.445Z,22.90
2018-07-19T10:55:22.781Z,22.90
2018-07-19T10:57:50.995Z,22.90
2018-07-19T11:00:19.172Z,22.80
2018-07-19T11:02:47.442Z,22.80
2018-07-19T11:05:16.639Z,23.00
2018-07-19T11:07:44.815Z,23.10
2018-07-19T11:10:13.005Z,23.10
2018-07-19T11:12:41.200Z,23.10
2018-07-19T11:17:37.350Z,22.90
2018-07-19T11:22:33.489Z,23.10
2018-07-19T11:25:01.825Z,23.10
2018-07-19T11:27:30.036Z,23.00
2018-07-19T11:32:26.210Z,23.30
2018-07-19T11:34:54.590Z,23.30
2018-07-19T11:37:22.762Z,23.20
2018-07-19T11:39:50.989Z,23.20
2018-07-19T11:42:19.290Z,23.20
2018-07-19T11:44:47.593Z,23.10
2018-07-19T11:47:15.868Z,23.10
2018-07-19T11:49:44.078Z,23.10
2018-07-19T11:52:12.330Z,23.10
2018-07-19T11:54:40.666Z,23.10
2018-07-19T11:57:08.841Z,23.20
2018-07-19T11:59:37.090Z,23.30
2018-07-19T12:02:05.453Z,23.30
2018-07-19T12:04:34.788Z,23.30
2018-07-19T12:07:03.015Z,23.30
2018-07-19T12:09:31.201Z,23.50
2018-07-19T12:11:59.461Z,23.50
2018-07-19T12:14:27.757Z,23.50
2018-07-19T12:16:56.016Z,23.50
2018-07-19T12:19:24.355Z,23.60
2018-07-19T12:21:52.572Z,23.60
2018-07-19T12:24:20.792Z,23.60
2018-07-19T12:26:49.036Z,23.70
2018-07-19T12:29:17.184Z,23.80
2018-07-19T12:31:45.968Z,23.70
2018-07-19T12:35:50.167Z,23.80
2018-07-19T12:38:18.424Z,23.90
2018-07-19T12:40:46.733Z,24.00
2018-07-19T12:43:14.976Z,24.00
2018-07-19T12:45:43.572Z,24.00
2018-07-19T12:48:11.880Z,24.00
2018-07-19T12:50:40.210Z,23.90
2018-07-19T12:53:08.456Z,23.90
2018-07-19T12:58:04.768Z,24.00
2018-07-19T13:00:33.428Z,24.00
2018-07-19T13:03:01.660Z,24.10
2018-07-19T13:05:29.890Z,24.10
2018-07-19T13:07:58.082Z,24.10
2018-07-19T13:10:26.255Z,24.20
2018-07-19T13:12:54.463Z,24.40
2018-07-19T13:17:50.817Z,24.40
2018-07-19T13:20:19.204Z,24.40
2018-07-19T13:22:47.411Z,24.40
2018-07-19T13:25:15.721Z,24.40
2018-07-19T13:27:43.973Z,24.40
2018-07-19T13:30:12.189Z,24.50
2018-07-19T13:32:40.435Z,24.50
2018-07-19T13:35:08.836Z,24.50
2018-07-19T13:37:37.053Z,24.50
2018-07-19T13:40:05.242Z,24.30
2018-07-19T13:42:33.441Z,24.30
2018-07-19T13:45:01.656Z,24.10
2018-07-19T13:47:29.885Z,24.20
2018-07-19T13:49:58.109Z,24.30
2018-07-19T13:52:37.888Z,24.40
2018-07-19T13:55:06.277Z,24.40
2018-07-19T13:57:34.483Z,24.30
2018-07-19T14:00:02.834Z,24.40
2018-07-19T14:02:31.000Z,24.50
2018-07-19T14:07:27.324Z,24.50
2018-07-19T14:09:55.485Z,24.50
2018-07-19T14:12:23.719Z,24.50
2018-07-19T14:14:52.011Z,24.40
2018-07-19T14:17:20.207Z,24.40
2018-07-19T14:19:48.448Z,24.50
2018-07-19T14:22:16.726Z,24.50
2018-07-19T14:24:45.105Z,24.50
2018-07-19T14:27:13.286Z,24.50
2018-07-19T14:29:41.535Z,24.50
2018-07-19T14:32:09.811Z,24.60
2018-07-19T14:34:38.079Z,24.80
2018-07-19T14:37:06.327Z,24.90
2018-07-19T14:39:34.477Z,24.90
2018-07-19T14:42:02.797Z,24.90
2018-07-19T14:44:31.143Z,24.90
2018-07-19T14:46:59.389Z,24.80
2018-07-19T14:49:27.636Z,24.90
2018-07-19T14:54:23.863Z,25.10
2018-07-19T14:56:52.151Z,25.10
2018-07-19T14:59:20.352Z,25.10
2018-07-19T15:01:48.524Z,25.20
2018-07-19T15:04:16.997Z,25.10
2018-07-19T15:06:45.207Z,25.20
2018-07-19T15:09:13.396Z,25.10
2018-07-19T15:11:41.656Z,25.10
2018-07-19T15:14:10.043Z,25.20
2018-07-19T15:16:38.284Z,25.00
2018-07-19T15:19:06.538Z,25.00
2018-07-19T15:21:34.762Z,25.10
2018-07-19T15:24:03.171Z,25.10
2018-07-19T15:26:31.401Z,25.00
2018-07-19T15:28:59.630Z,25.00
2018-07-19T15:31:27.825Z,24.90
2018-07-19T15:33:56.185Z,24.90
2018-07-19T15:36:24.478Z,24.80
2018-07-19T15:38:52.690Z,24.70
2018-07-19T15:41:20.971Z,24.70
2018-07-19T15:43:49.515Z,24.70
2018-07-19T15:46:17.708Z,24.60
2018-07-19T15:48:45.958Z,24.50
2018-07-19T15:51:14.233Z,24.50
2018-07-19T15:53:42.481Z,24.50
2018-07-19T15:56:10.703Z,24.40
2018-07-19T15:58:38.874Z,24.40
2018-07-19T16:01:07.166Z,24.40
2018-07-19T16:03:35.402Z,24.40
2018-07-19T16:06:03.613Z,24.30
2018-07-19T16:08:31.842Z,24.20
2018-07-19T16:11:00.041Z,24.20
2018-07-19T16:13:28.675Z,24.20
2018-07-19T16:15:56.892Z,24.20
2018-07-19T16:18:25.087Z,24.10
2018-07-19T16:20:53.326Z,24.20
2018-07-19T16:23:21.544Z,24.20
2018-07-19T16:25:49.861Z,24.20
2018-07-19T16:28:18.364Z,24.20
2018-07-19T16:30:46.677Z,24.10
2018-07-19T16:33:14.959Z,24.00
2018-07-19T16:35:44.321Z,23.90
2018-07-19T16:38:12.472Z,23.80
2018-07-19T16:40:40.673Z,23.80
2018-07-19T16:43:08.872Z,23.90
2018-07-19T16:45:37.218Z,23.70
2018-07-19T16:48:05.522Z,23.60
2018-07-19T16:50:33.703Z,23.50
2018-07-19T16:53:01.866Z,23.50
2018-07-19T16:55:31.160Z,23.40
2018-07-19T16:57:59.415Z,23.50
2018-07-19T17:00:27.625Z,23.50
2018-07-19T17:05:24.028Z,23.50
2018-07-19T17:07:52.247Z,23.30
2018-07-19T17:10:20.441Z,23.30
2018-07-19T17:12:48.678Z,23.10
2018-07-19T17:15:16.878Z,23.00
2018-07-19T17:17:45.084Z,22.90
2018-07-19T17:20:13.284Z,22.80
2018-07-19T17:22:41.481Z,22.80
2018-07-19T17:25:09.708Z,22.70
2018-07-19T17:27:37.982Z,22.60
2018-07-19T17:30:06.595Z,22.60
2018-07-19T17:32:34.891Z,22.50
2018-07-19T17:35:03.106Z,22.50
2018-07-19T17:37:31.275Z,22.40
2018-07-19T17:39:59.515Z,22.40
2018-07-19T17:42:27.684Z,22.30
2018-07-19T17:47:24.264Z,22.30
2018-07-19T17:49:52.728Z,22.30
2018-07-19T17:52:20.973Z,22.30
2018-07-19T17:54:49.286Z,22.30
2018-07-19T17:57:17.476Z,22.30
2018-07-19T17:59:45.753Z,22.20
2018-07-19T18:02:13.905Z,22.10
2018-07-19T18:04:42.216Z,22.10
2018-07-19T18:07:10.426Z,22.00
2018-07-19T18:09:38.612Z,22.00
2018-07-19T18:12:06.861Z,22.00
2018-07-19T18:14:35.157Z,21.90
2018-07-19T18:17:03.368Z,21.80
2018-07-19T18:19:31.670Z,21.80
2018-07-19T18:21:59.857Z,21.80
2018-07-19T18:24:29.229Z,21.80
2018-07-19T18:26:57.525Z,21.70
2018-07-19T18:29:25.771Z,21.70
2018-07-19T18:31:53.977Z,21.60
2018-07-19T18:34:22.340Z,21.60
2018-07-19T18:36:50.574Z,21.60
2018-07-19T18:41:46.727Z,21.50
2018-07-19T18:44:15.015Z,21.50
2018-07-19T18:46:43.234Z,21.40
2018-07-19T18:49:11.429Z,21.40
2018-07-19T18:51:39.615Z,21.30
2018-07-19T18:56:35.928Z,21.20
2018-07-19T18:59:04.186Z,21.10
2018-07-19T19:01:32.447Z,21.10
2018-07-19T19:04:00.843Z,21.00
2018-07-19T19:06:29.124Z,21.00
2018-07-19T19:08:57.294Z,21.00
2018-07-19T19:11:25.561Z,20.90
2018-07-19T19:13:53.798Z,20.90
2018-07-19T19:16:21.995Z,20.80
2018-07-19T19:18:50.234Z,20.80
2018-07-19T19:21:18.436Z,20.70
2018-07-19T19:23:46.632Z,20.70
2018-07-19T19:26:14.873Z,20.60
2018-07-19T19:28:43.255Z,20.60
2018-07-19T19:31:11.502Z,20.50
2018-07-19T19:33:39.727Z,20.50
2018-07-19T19:36:08.040Z,20.40
2018-07-19T19:38:36.256Z,20.40
2018-07-19T19:41:04.482Z,20.30
2018-07-19T19:43:32.677Z,20.30
2018-07-19T19:46:00.970Z,20.30
2018-07-19T19:48:32.521Z,20.30
2018-07-19T19:51:00.712Z,20.30
2018-07-19T19:53:29.034Z,20.20
2018-07-19T19:55:57.376Z,20.20
2018-07-19T19:58:25.576Z,20.20
2018-07-19T20:00:53.820Z,20.10
2018-07-19T20:03:22.048Z,20.10
2018-07-19T20:05:50.407Z,20.10
2018-07-19T20:08:18.713Z,20.00
2018-07-19T20:10:47.164Z,20.00
2018-07-19T20:13:15.494Z,20.00
2018-07-19T20:15:43.877Z,19.90
2018-07-19T20:18:12.144Z,19.90
2018-07-19T20:20:40.551Z,19.90
2018-07-19T20:23:08.876Z,19.90
2018-07-19T20:25:37.209Z,19.80
2018-07-19T20:28:05.463Z,19.80
2018-07-19T20:30:33.639Z,19.80
2018-07-19T20:33:01.808Z,19.80
2018-07-19T20:35:30.118Z,19.80
2018-07-19T20:40:26.311Z,19.70
2018-07-19T20:42:54.557Z,19.70
2018-07-19T20:45:22.808Z,19.70
2018-07-19T20:47:51.040Z,19.60
2018-07-19T20:50:19.281Z,19.60
2018-07-19T20:52:47.484Z,19.60
2018-07-19T20:55:15.913Z,19.60
2018-07-19T20:57:44.165Z,19.60
2018-07-19T21:00:12.443Z,19.50
2018-07-19T21:02:40.909Z,19.50
2018-07-19T21:05:09.247Z,19.50
2018-07-19T21:07:37.572Z,19.40
2018-07-19T21:10:05.872Z,19.40
2018-07-19T21:12:34.098Z,19.40
2018-07-19T21:15:02.593Z,19.30
2018-07-19T21:17:30.804Z,19.30
2018-07-19T21:19:59.216Z,19.30
2018-07-19T21:22:27.416Z,19.30
2018-07-19T21:24:55.871Z,19.20
2018-07-19T21:27:24.159Z,19.20
2018-07-19T21:29:52.739Z,19.10
2018-07-19T21:32:21.131Z,19.10
2018-07-19T21:34:49.538Z,19.20
2018-07-19T21:37:17.780Z,19.20
2018-07-19T21:39:46.004Z,19.10
2018-07-19T21:42:14.239Z,19.10
2018-07-19T21:44:42.689Z,19.00
2018-07-19T21:47:10.994Z,19.00
2018-07-19T21:49:39.226Z,18.90
2018-07-19T21:52:07.442Z,18.90
2018-07-19T21:54:35.660Z,18.90
2018-07-19T21:57:03.938Z,18.90
2018-07-19T22:02:00.134Z,18.70
2018-07-19T22:04:28.409Z,18.70
2018-07-19T22:06:56.669Z,18.70
2018-07-19T22:09:24.888Z,18.60
2018-07-19T22:12:05.965Z,18.60
2018-07-19T22:14:34.224Z,18.50
2018-07-19T22:17:02.492Z,18.50
2018-07-19T22:19:31.794Z,18.60
2018-07-19T22:22:00.059Z,18.60
2018-07-19T22:24:28.420Z,18.50
2018-07-19T22:26:56.727Z,18.50
2018-07-19T22:29:25.997Z,18.50
2018-07-19T22:31:54.243Z,18.40
2018-07-19T22:34:22.493Z,18.40
2018-07-19T22:36:50.786Z,18.40
2018-07-19T22:39:19.029Z,18.40
2018-07-19T22:41:47.244Z,18.40
2018-07-19T22:44:15.597Z,18.30
2018-07-19T22:46:43.810Z,18.30
2018-07-19T22:49:12.005Z,18.30
2018-07-19T22:51:40.186Z,18.20
2018-07-19T22:54:09.526Z,18.20
2018-07-19T22:56:37.752Z,18.10
2018-07-19T22:59:06.059Z,18.10
2018-07-19T23:01:34.318Z,18.10
2018-07-19T23:04:03.312Z,18.10
2018-07-19T23:06:31.549Z,18.10
2018-07-19T23:08:59.801Z,18.00
2018-07-19T23:11:28.080Z,18.00
2018-07-19T23:13:56.576Z,18.00
2018-07-19T23:16:24.821Z,18.00
2018-07-19T23:18:54.267Z,17.90
2018-07-19T23:21:22.474Z,17.90
2018-07-19T23:23:50.876Z,17.90
2018-07-19T23:26:19.132Z,17.80
2018-07-19T23:28:48.115Z,17.80
2018-07-19T23:31:16.313Z,17.70
2018-07-19T23:33:44.567Z,17.70
2018-07-19T23:36:20.077Z,17.60
2018-07-19T23:38:53.556Z,17.60
2018-07-19T23:41:35.736Z,17.50
2018-07-19T23:44:08.343Z,17.50
2018-07-19T23:46:47.708Z,17.40
2018-07-19T23:49:15.925Z,17.40
2018-07-19T23:51:44.107Z,17.40
2018-07-19T23:54:12.314Z,17.30
2018-07-19T23:56:40.488Z,17.30
2018-07-19T23:59:08.741Z,17.30
